Nearby METAR Reports

 

EIDW - Dublin Airport, Ireland
Distance from station: ENE 79km
Updated: 21/10/2019 03:00
Mostly cloudy
Mostly cloudy
 Wind from WNW
Wind: WNW 15 km/h
Temperature: 6°C
Wind Chill: 3°C
Dew Point: 4°C
Humidity: 87%
Barometer: 1023 hPa
Clouds: Mostly cloudy
Visibility: 10 km
Cloud details: Few Clouds 732 m
Mostly cloudy 1158 m
2019/10/21 02:00 EIDW 210200Z 30008KT 9999 FEW024 BKN038 06/04 Q1023 NOSIG
EIME - Casement (mil), Ireland
Distance from station: ENE 62km
Updated: 21/10/2019 03:00
Mostly cloudy
Mostly cloudy
 Wind from W
Wind: W 7 km/h
Temperature: 4°C
Wind Chill: 2°C
Dew Point: 3°C
Humidity: 93%
Barometer: 1023 hPa
Clouds: Mostly cloudy
Visibility: 10 km
Cloud details: Mostly cloudy 1219 m
2019/10/21 02:00 EIME 210200Z 28004KT 9999 BKN040 04/03 Q1023
EIWF - Waterford Arpt, Ireland
Distance from station: S 111km
Updated: 20/10/2019 20:30
NOT Current
Clear
Clear
 Wind from NNE
Wind: NNE 6 km/h
Temperature: 6°C
Dew Point: 4°C
Humidity: 87%
Barometer: 1020 hPa
Summary: Clear
Visibility: greater than 10 km
2019/10/20 19:30 EIWF 201930Z 02003KT CAVOK 06/04 Q1020
 
EINN - Shannon Airport, Ireland
Distance from station: WSW 117km
Updated: 21/10/2019 03:00
Few Clouds
Few Clouds
 Wind from NNW
Wind: NNW 6 km/h
Temperature: 3°C
Dew Point: 2°C
Humidity: 93%
Barometer: 1024 hPa
Clouds: Few Clouds
Visibility: 10 km
Cloud details: Few Clouds 1219 m
2019/10/21 02:00 EINN 210200Z 33003KT 9999 FEW040 03/02 Q1024 NOSIG
EIKN - Connaught Apt, Ireland
Distance from station: NW 127km
Updated: 21/10/2019 00:30
NOT Current
Overcast
Overcast
 Wind from N
Wind: N 7 km/h
Temperature: 7°C
Wind Chill: 6°C
Dew Point: 3°C
Humidity: 76%
Barometer: 1024 hPa
Clouds: Overcast
Visibility: 10 km
Cloud details: Few Clouds 671 m
Overcast 1128 m
2019/10/20 23:30 EIKN 202330Z 01004KT 340V050 9999 FEW022 OVC037 07/03 Q1024 NOSIG
EISG - Sligo Arpt, Ireland
Distance from station: NNW 148km
Updated: 20/10/2019 17:30
NOT Current
Clear
Clear
 Wind from N
Wind: N 22 km/h
Temperature: 10°C
Wind Chill: 7°C
Dew Point: 4°C
Humidity: 67%
Barometer: 1022 hPa
Summary: Clear
Visibility: greater than 10 km
2019/10/20 16:30 EISG 201630Z 01012KT CAVOK 10/04 Q1022
 
EICK - Cork Arpt/Corcai, Ireland
Distance from station: SSW 165km
Updated: 21/10/2019 03:00
Partly cloudy
Partly cloudy
 Wind from NNW
Wind: NNW 20 km/h
Temperature: 5°C
Wind Chill: 1°C
Dew Point: 3°C
Humidity: 87%
Barometer: 1023 hPa
Clouds: Partly cloudy
Visibility: 10 km
Cloud details: Few Clouds 610 m
Partly cloudy 1524 m
2019/10/21 02:00 EICK 210200Z 34011KT 9999 FEW020 SCT050 05/03 Q1023 NOSIG
EGAA - Belfast/Aldergro, United Kingdom
Distance from station: NNE 179km
Updated: 21/10/2019 02:50
Overcast
Overcast
 Wind from E
Wind: E 4 km/h
Temperature: 5°C
Dew Point: 4°C
Humidity: 93%
Barometer: 1024 hPa
Clouds: Overcast
Visibility: 10 km
Cloud details: Overcast 975 m
2019/10/21 01:50 EGAA 210150Z 10002KT 9999 OVC032 05/04 Q1024
EIKY - Kerry Arpt, Ireland
Distance from station: SW 182km
Updated: 20/10/2019 20:30
NOT Current
Mostly cloudy
Mostly cloudy
 Wind from NNE
Wind: NNE 9 km/h
Temperature: 9°C
Wind Chill: 7°C
Dew Point: 5°C
Humidity: 76%
Barometer: 1022 hPa
Clouds: Mostly cloudy
Visibility: 10 km
Cloud details: Mostly cloudy 1524 m
2019/10/20 19:30 EIKY 201930Z 02005KT 350V060 9999 BKN050 09/05 Q1022
 
EGAC - Belfast Harbour, United Kingdom
Distance from station: NNE 188km
Updated: 21/10/2019 02:50
Mostly cloudy
Mostly cloudy
 Wind from varies
Wind: varies 2 km/h
Temperature: 8°C
Dew Point: 6°C
Humidity: 87%
Barometer: 1024 hPa
Clouds: Mostly cloudy
Visibility: 10 km
Cloud details: Mostly cloudy 1128 m
2019/10/21 01:50 EGAC 210150Z AUTO VRB01KT 9999 BKN037/// 08/06 Q1024
EGOV - Valley Raf, United Kingdom
Distance from station: E 188km
Updated: 21/10/2019 02:50
Mostly cloudy
Mostly cloudy
 Wind from NNE
Wind: NNE 13 km/h
Temperature: 9°C
Wind Chill: 7°C
Dew Point: 6°C
Humidity: 82%
Barometer: 1021 hPa
Clouds: Mostly cloudy
Visibility: 10 km
Cloud details: Few Clouds 914 m
Mostly cloudy 1524 m
2019/10/21 01:50 EGOV 210150Z AUTO 02007KT 9999 FEW030/// BKN050/// 09/06 Q1021
EGNS - Isle Of Man/Rona, United Kingdom
Distance from station: ENE 207km
Updated: 21/10/2019 02:50
Clear
Clear
 Wind from NE
Wind: NE 13 km/h
Temperature: 8°C
Wind Chill: 6°C
Dew Point: 4°C
Humidity: 76%
Barometer: 1022 hPa
Summary: Clear
Visibility: greater than 10 km
2019/10/21 01:50 EGNS 210150Z 04007KT CAVOK 08/04 Q1022